createdAt,value
2019-03-12T00:01:18.930Z,164067.28
2019-03-12T00:03:47.135Z,164061.97
2019-03-12T00:06:15.237Z,164054.00
2019-03-12T00:08:43.362Z,164059.33
2019-03-12T00:11:11.478Z,164032.77
2019-03-12T00:13:39.549Z,164019.44
2019-03-12T00:16:07.701Z,164038.03
2019-03-12T00:18:35.786Z,164036.75
2019-03-12T00:21:03.831Z,164050.03
2019-03-12T00:23:32.120Z,164019.44
2019-03-12T00:26:00.264Z,164019.44
2019-03-12T00:28:28.388Z,164032.77
2019-03-12T00:30:56.683Z,164035.41
2019-03-12T00:33:24.842Z,164022.13
2019-03-12T00:35:53.350Z,164012.81
2019-03-12T00:38:21.431Z,164036.75
2019-03-12T00:40:49.646Z,163994.22
2019-03-12T00:43:17.788Z,164027.44
2019-03-12T00:45:46.181Z,164003.52
2019-03-12T00:48:14.304Z,163995.52
2019-03-12T00:50:42.691Z,164006.16
2019-03-12T00:53:10.805Z,164012.81
2019-03-12T00:55:39.024Z,164044.70
2019-03-12T00:58:07.124Z,164047.39
2019-03-12T01:00:35.272Z,164071.31
2019-03-12T01:03:03.570Z,164071.31
2019-03-12T01:05:31.653Z,164079.28
2019-03-12T01:07:59.812Z,164107.19
2019-03-12T01:10:27.988Z,164105.84
2019-03-12T01:12:56.125Z,164141.77
2019-03-12T01:15:24.612Z,164131.13
2019-03-12T01:17:52.976Z,164147.09
2019-03-12T01:20:21.016Z,164180.33
2019-03-12T01:22:49.091Z,164192.27
2019-03-12T01:25:17.293Z,164176.34
2019-03-12T01:27:45.376Z,164192.27
2019-03-12T01:30:15.419Z,164194.95
2019-03-12T01:32:43.534Z,164214.91
2019-03-12T01:35:11.793Z,164197.59
2019-03-12T01:37:40.083Z,164217.55
2019-03-12T01:40:10.050Z,164217.55
2019-03-12T01:42:38.225Z,164230.83
2019-03-12T01:45:10.083Z,164226.84
2019-03-12T01:47:38.158Z,164200.28
2019-03-12T01:50:07.488Z,164226.84
2019-03-12T01:52:35.618Z,164212.22
2019-03-12T01:55:05.162Z,164224.22
2019-03-12T01:57:33.374Z,164248.16
2019-03-12T02:00:01.871Z,164245.47
2019-03-12T02:02:30.116Z,164218.89
2019-03-12T02:04:58.198Z,164249.45
2019-03-12T02:07:43.595Z,164241.48
2019-03-12T02:10:11.988Z,164256.13
2019-03-12T02:12:40.142Z,164257.47
2019-03-12T02:15:09.678Z,164244.12
2019-03-12T02:17:37.767Z,164258.75
2019-03-12T02:20:09.357Z,164285.38
2019-03-12T02:22:38.072Z,164285.38
2019-03-12T02:25:07.753Z,164250.80
2019-03-12T02:27:36.156Z,164236.16
2019-03-12T02:30:07.104Z,164262.78
2019-03-12T02:32:35.376Z,164228.20
2019-03-12T02:35:04.122Z,164213.56
2019-03-12T02:37:32.452Z,164221.53
2019-03-12T02:40:01.516Z,164189.62
2019-03-12T02:42:29.648Z,164160.37
2019-03-12T02:44:57.773Z,164172.31
2019-03-12T02:47:25.831Z,164152.41
2019-03-12T02:49:54.283Z,164101.86
2019-03-12T02:52:22.363Z,164147.09
2019-03-12T02:54:50.464Z,164136.44
2019-03-12T02:57:18.845Z,164104.55
2019-03-12T02:59:46.960Z,164104.55
2019-03-12T03:02:15.208Z,164088.58
2019-03-12T03:04:43.372Z,164107.19
2019-03-12T03:07:19.478Z,164080.62
2019-03-12T03:09:48.110Z,164093.91
2019-03-12T03:12:16.249Z,164052.66
2019-03-12T03:14:44.400Z,164073.95
2019-03-12T03:17:15.092Z,164039.38
2019-03-12T03:19:43.715Z,164030.08
2019-03-12T03:22:11.852Z,164000.83
2019-03-12T03:24:40.062Z,164023.47
2019-03-12T03:27:08.178Z,164024.75
2019-03-12T03:29:36.368Z,164011.48
2019-03-12T03:32:04.651Z,164016.80
2019-03-12T03:34:32.821Z,164030.08
2019-03-12T03:37:00.979Z,163979.59
2019-03-12T03:39:29.077Z,163978.25
2019-03-12T03:41:57.632Z,163966.27
2019-03-12T03:44:25.710Z,163986.22
2019-03-12T03:46:54.352Z,163992.88
2019-03-12T03:49:22.559Z,163975.56
2019-03-12T03:51:50.633Z,163955.67
2019-03-12T03:54:19.060Z,163947.67
2019-03-12T03:56:47.145Z,163917.14
2019-03-12T03:59:15.262Z,163947.67
2019-03-12T04:01:43.431Z,163887.91
2019-03-12T04:04:11.510Z,163926.44
2019-03-12T04:06:40.190Z,163918.44
2019-03-12T04:09:08.315Z,163893.22
2019-03-12T04:11:36.408Z,163905.16
2019-03-12T04:14:04.908Z,163915.80
2019-03-12T04:16:33.084Z,163887.91
2019-03-12T04:19:01.228Z,163858.66
2019-03-12T04:21:29.632Z,163874.63
2019-03-12T04:23:57.761Z,163852.00
2019-03-12T04:26:26.190Z,163852.00
2019-03-12T04:28:54.329Z,163853.34
2019-03-12T04:31:22.627Z,163841.42
2019-03-12T04:34:18.564Z,163826.81
2019-03-12T04:36:48.514Z,163862.64
2019-03-12T04:39:16.654Z,163788.28
2019-03-12T04:41:44.715Z,163838.73
2019-03-12T04:44:12.786Z,163813.48
2019-03-12T04:46:41.008Z,163777.64
2019-03-12T04:49:09.134Z,163794.88
2019-03-12T04:51:37.374Z,163770.98
2019-03-12T04:54:05.439Z,163790.91
2019-03-12T04:56:33.552Z,163785.59
2019-03-12T04:59:01.646Z,163804.19
2019-03-12T05:01:29.870Z,163765.66
2019-03-12T05:03:57.945Z,163780.27
2019-03-12T05:06:26.075Z,163786.94
2019-03-12T05:08:54.153Z,163788.28
2019-03-12T05:11:22.241Z,163790.91
2019-03-12T05:14:22.665Z,163761.69
2019-03-12T05:16:53.010Z,163782.95
2019-03-12T05:19:21.474Z,163767.00
2019-03-12T05:21:49.662Z,163780.27
2019-03-12T05:24:17.827Z,163764.38
2019-03-12T05:26:46.217Z,163753.73
2019-03-12T05:29:14.361Z,163780.27
2019-03-12T05:31:42.416Z,163761.69
2019-03-12T05:34:10.553Z,163772.31
2019-03-12T05:36:38.793Z,163801.55
2019-03-12T05:39:07.082Z,163798.86
2019-03-12T05:41:35.211Z,163796.23
2019-03-12T05:44:03.448Z,163812.19
2019-03-12T05:46:31.560Z,163797.56
2019-03-12T05:48:59.689Z,163801.55
2019-03-12T05:51:27.779Z,163812.19
2019-03-12T05:53:55.880Z,163822.78
2019-03-12T05:56:24.003Z,163830.78
2019-03-12T05:58:52.190Z,163828.09
2019-03-12T06:01:20.356Z,163826.81
2019-03-12T06:03:48.448Z,163825.45
2019-03-12T06:06:16.588Z,163822.78
2019-03-12T06:08:44.673Z,163841.42
2019-03-12T06:11:12.805Z,163841.42
2019-03-12T06:13:40.953Z,163861.30
2019-03-12T06:16:09.069Z,163857.33
2019-03-12T06:18:37.170Z,163901.17
2019-03-12T06:21:05.352Z,163878.59
2019-03-12T06:23:33.466Z,163915.80
2019-03-12T06:26:01.628Z,163902.52
2019-03-12T06:28:31.233Z,163869.31
2019-03-12T06:31:12.861Z,163882.58
2019-03-12T06:34:00.580Z,163891.88
2019-03-12T06:36:42.901Z,163863.98
2019-03-12T06:39:27.338Z,163853.34
2019-03-12T06:42:18.386Z,163895.86
2019-03-12T06:45:14.972Z,163927.73
2019-03-12T06:48:03.361Z,163946.38
2019-03-12T06:50:53.853Z,163953.00
2019-03-12T06:53:40.733Z,163956.97
2019-03-12T06:56:30.941Z,164011.48
2019-03-12T06:59:25.884Z,164015.45
2019-03-12T07:02:01.469Z,164059.33
2019-03-12T07:04:50.498Z,164019.44
2019-03-12T07:07:47.255Z,164075.30
2019-03-12T07:10:43.902Z,164147.09
2019-03-12T07:13:17.228Z,164105.84
2019-03-12T07:15:59.963Z,164096.53
2019-03-12T07:18:56.699Z,164099.22
2019-03-12T07:21:50.421Z,164046.05
2019-03-12T07:24:40.973Z,164127.14
2019-03-12T07:27:27.345Z,164148.38
2019-03-12T07:30:27.291Z,164167.03
2019-03-12T07:33:15.988Z,164139.08
2019-03-12T07:36:15.375Z,164245.47
2019-03-12T07:39:06.164Z,164294.69
2019-03-12T07:41:52.710Z,164290.72
2019-03-12T07:44:52.197Z,164353.23
2019-03-12T07:47:46.773Z,164355.88
2019-03-12T07:50:37.260Z,164378.47
2019-03-12T07:53:16.964Z,164401.13
2019-03-12T07:56:05.089Z,164418.41
2019-03-12T07:58:55.546Z,164426.38
2019-03-12T08:01:30.492Z,164426.38
2019-03-12T08:04:16.804Z,164423.73
2019-03-12T08:07:08.203Z,164407.75
2019-03-12T08:09:56.154Z,164429.06
2019-03-12T08:12:59.447Z,164434.39
2019-03-12T08:15:50.618Z,164458.34
2019-03-12T08:18:53.579Z,164447.69
2019-03-12T08:21:44.303Z,164458.34
2019-03-12T08:24:24.227Z,164484.94
2019-03-12T08:27:01.610Z,164475.63
2019-03-12T08:30:04.422Z,164542.16
2019-03-12T08:32:45.594Z,164543.50
2019-03-12T08:35:36.095Z,164578.13
2019-03-12T08:38:26.882Z,164571.45
2019-03-12T08:41:20.437Z,164580.77
2019-03-12T08:44:05.207Z,164570.16
2019-03-12T08:46:44.386Z,164596.75
2019-03-12T08:50:47.551Z,164630.03
2019-03-12T08:53:30.572Z,164668.66
2019-03-12T08:56:21.250Z,164725.97
2019-03-12T08:59:12.122Z,164708.67
2019-03-12T09:01:57.349Z,164705.97
2019-03-12T09:04:41.444Z,164711.31
2019-03-12T09:07:31.688Z,164689.98
2019-03-12T09:10:07.809Z,164697.95
2019-03-12T09:12:46.154Z,164642.05
2019-03-12T09:15:34.630Z,164707.31
2019-03-12T09:18:28.327Z,164763.23
2019-03-12T09:21:19.177Z,164795.23
2019-03-12T09:24:09.590Z,164859.14
2019-03-12T09:26:56.267Z,164869.81
2019-03-12T09:29:34.176Z,164879.13
2019-03-12T09:32:20.803Z,164819.22
2019-03-12T09:35:08.357Z,164829.83
2019-03-12T09:37:53.385Z,164823.20
2019-03-12T09:40:31.541Z,164803.22
2019-03-12T09:43:19.232Z,164829.83
2019-03-12T09:46:09.646Z,164793.89
2019-03-12T09:48:51.971Z,164741.95
2019-03-12T09:51:39.694Z,164772.56
2019-03-12T09:54:27.405Z,164735.28
2019-03-12T09:57:19.980Z,164757.91
2019-03-12T10:00:16.615Z,164793.89
2019-03-12T10:03:10.630Z,164775.25
2019-03-12T10:06:01.144Z,164763.23
2019-03-12T10:08:57.930Z,164763.23
2019-03-12T10:12:01.275Z,164711.31
2019-03-12T10:14:51.543Z,164732.64
2019-03-12T10:17:51.275Z,164737.97
2019-03-12T10:20:44.951Z,164700.59
2019-03-12T10:23:22.224Z,164725.97
2019-03-12T10:26:02.007Z,164732.64
2019-03-12T10:28:42.648Z,164747.28
2019-03-12T10:31:20.366Z,164779.23
2019-03-12T10:34:28.955Z,164785.91
2019-03-12T10:37:25.062Z,164796.53
2019-03-12T10:40:32.667Z,164797.87
2019-03-12T10:43:16.219Z,164817.86
2019-03-12T10:45:49.879Z,164868.47
2019-03-12T10:48:17.963Z,164852.52
2019-03-12T10:50:46.077Z,164859.14
2019-03-12T10:53:14.151Z,164897.78
2019-03-12T10:55:42.220Z,164913.78
2019-03-12T10:58:10.378Z,164856.50
2019-03-12T11:00:39.415Z,164935.13
2019-03-12T11:03:07.503Z,164944.44
2019-03-12T11:05:45.360Z,164949.73
2019-03-12T11:08:06.911Z,164796.53
2019-03-12T11:10:35.407Z,164917.77
2019-03-12T11:13:03.765Z,164800.56
2019-03-12T11:15:31.840Z,164893.78
2019-03-12T11:17:59.963Z,164877.78
2019-03-12T11:20:28.112Z,164809.89
2019-03-12T11:22:56.287Z,164891.14
2019-03-12T11:25:27.767Z,164968.44
2019-03-12T11:27:54.357Z,164987.08
2019-03-12T11:30:22.537Z,164985.73
2019-03-12T11:32:50.723Z,165015.06
2019-03-12T11:35:19.251Z,164987.08
2019-03-12T11:37:47.370Z,165020.39
2019-03-12T11:40:17.216Z,165061.69
2019-03-12T11:42:45.920Z,165076.36
2019-03-12T11:45:18.504Z,165071.02
2019-03-12T11:47:45.089Z,165055.06
2019-03-12T11:50:16.084Z,165100.34
2019-03-12T11:52:52.405Z,165097.72
2019-03-12T11:55:15.293Z,165107.03
2019-03-12T11:57:44.899Z,165103.05
2019-03-12T12:00:23.573Z,165105.69
2019-03-12T12:03:00.014Z,165115.02
2019-03-12T12:05:21.734Z,165119.00
2019-03-12T12:07:49.772Z,165129.69
2019-03-12T12:10:18.344Z,165156.31
2019-03-12T12:12:46.474Z,165167.00
2019-03-12T12:15:15.617Z,165204.37
2019-03-12T12:17:43.963Z,165191.00
2019-03-12T12:20:12.655Z,165203.03
2019-03-12T12:22:40.850Z,165205.67
2019-03-12T12:25:10.528Z,165185.66
2019-03-12T12:27:38.642Z,165215.00
2019-03-12T12:30:09.382Z,165159.02
2019-03-12T12:32:37.482Z,165201.67
2019-03-12T12:35:07.067Z,165205.67
2019-03-12T12:37:35.137Z,165209.66
2019-03-12T12:40:04.187Z,165197.69
2019-03-12T12:42:32.259Z,165207.02
2019-03-12T12:45:00.799Z,165207.02
2019-03-12T12:47:29.276Z,165217.69
2019-03-12T12:49:57.498Z,165236.36
2019-03-12T12:52:25.563Z,165225.69
2019-03-12T12:54:53.636Z,165265.70
2019-03-12T12:57:21.765Z,165273.69
2019-03-12T12:59:49.926Z,165287.00
2019-03-12T13:02:18.405Z,165295.05
2019-03-12T13:04:46.465Z,165336.37
2019-03-12T13:07:15.010Z,165353.75
2019-03-12T13:09:43.673Z,165380.45
2019-03-12T13:12:11.856Z,165373.75
2019-03-12T13:14:41.795Z,165415.14
2019-03-12T13:17:09.937Z,165412.45
2019-03-12T13:19:38.111Z,165404.47
2019-03-12T13:22:06.355Z,165436.47
2019-03-12T13:24:34.507Z,165425.78
2019-03-12T13:27:02.670Z,165436.47
2019-03-12T13:29:30.965Z,165441.81
2019-03-12T13:32:12.587Z,165455.14
2019-03-12T13:34:29.109Z,165447.16
2019-03-12T13:36:57.756Z,165463.17
2019-03-12T13:39:26.005Z,165469.81
2019-03-12T13:41:54.345Z,165449.80
2019-03-12T13:44:22.541Z,165491.19
2019-03-12T13:46:51.027Z,165401.77
2019-03-12T13:49:19.270Z,165469.81
2019-03-12T13:51:47.353Z,165500.53
2019-03-12T13:54:15.458Z,165516.56
2019-03-12T13:56:43.922Z,165464.47
2019-03-12T13:59:12.090Z,165423.14
2019-03-12T14:01:41.146Z,165381.80
2019-03-12T14:04:11.034Z,165425.78
2019-03-12T14:06:39.296Z,165444.50
2019-03-12T14:09:08.085Z,165439.16
2019-03-12T14:11:36.305Z,165432.47
2019-03-12T14:14:04.445Z,165461.83
2019-03-12T14:16:32.561Z,165473.81
2019-03-12T14:19:01.372Z,165497.83
2019-03-12T14:21:38.029Z,165524.55
2019-03-12T14:24:06.238Z,165536.53
2019-03-12T14:26:34.460Z,165516.56
2019-03-12T14:29:02.536Z,165495.19
2019-03-12T14:31:31.739Z,165440.47
2019-03-12T14:33:59.831Z,165431.12
2019-03-12T14:36:28.097Z,165436.47
2019-03-12T14:38:56.182Z,165419.14
2019-03-12T14:41:24.479Z,165447.16
2019-03-12T14:43:52.547Z,165427.13
2019-03-12T14:46:20.619Z,165429.83
2019-03-12T14:48:51.522Z,165412.45
2019-03-12T14:51:55.531Z,165408.45
2019-03-12T14:54:23.821Z,165423.14
2019-03-12T14:56:51.912Z,165453.84
2019-03-12T14:59:20.110Z,165439.16
2019-03-12T15:01:48.298Z,165451.14
2019-03-12T15:04:16.447Z,165420.48
2019-03-12T15:06:44.632Z,165460.48
2019-03-12T15:09:14.287Z,165436.47
2019-03-12T15:11:42.409Z,165427.13
2019-03-12T15:14:10.531Z,165449.80
2019-03-12T15:16:38.704Z,165429.83
2019-03-12T15:19:06.925Z,165455.14
2019-03-12T15:21:35.048Z,165461.83
2019-03-12T15:24:03.173Z,165463.17
2019-03-12T15:26:31.307Z,165436.47
2019-03-12T15:28:59.410Z,165456.48
2019-03-12T15:31:27.646Z,165473.81
2019-03-12T15:33:56.187Z,165460.48
2019-03-12T15:36:24.689Z,165471.17
2019-03-12T15:38:52.750Z,165449.80
2019-03-12T15:41:20.997Z,165459.19
2019-03-12T15:43:49.087Z,165455.14
2019-03-12T15:46:17.167Z,165491.19
2019-03-12T15:48:45.337Z,165472.52
2019-03-12T15:51:13.435Z,165471.17
2019-03-12T15:53:41.569Z,165476.50
2019-03-12T15:56:09.655Z,165467.17
2019-03-12T15:58:37.772Z,165487.19
2019-03-12T16:01:05.909Z,165460.48
2019-03-12T16:03:34.029Z,165444.50
2019-03-12T16:06:02.205Z,165459.19
2019-03-12T16:08:30.338Z,165423.14
2019-03-12T16:10:58.774Z,165411.16
2019-03-12T16:13:27.036Z,165401.77
2019-03-12T16:15:55.530Z,165423.14
2019-03-12T16:18:23.607Z,165431.12
2019-03-12T16:20:51.710Z,165404.47
2019-03-12T16:23:19.801Z,165404.47
2019-03-12T16:25:48.266Z,165399.12
2019-03-12T16:28:16.346Z,165404.47
2019-03-12T16:30:44.467Z,165381.80
2019-03-12T16:33:12.535Z,165383.09
2019-03-12T16:35:40.725Z,165364.44
2019-03-12T16:38:08.885Z,165351.09
2019-03-12T16:40:37.031Z,165343.11
2019-03-12T16:43:05.186Z,165300.39
2019-03-12T16:45:33.287Z,165308.38
2019-03-12T16:48:01.460Z,165297.69
2019-03-12T16:50:30.506Z,165308.38
2019-03-12T16:52:58.573Z,165308.38
2019-03-12T16:55:26.716Z,165311.02
2019-03-12T16:57:54.801Z,165303.03
2019-03-12T17:00:22.982Z,165315.02
2019-03-12T17:02:51.139Z,165329.69
2019-03-12T17:05:19.643Z,165303.03
2019-03-12T17:07:48.110Z,165313.72
2019-03-12T17:10:16.416Z,165311.02
2019-03-12T17:12:44.640Z,165313.72
2019-03-12T17:15:13.227Z,165305.67
2019-03-12T17:17:41.633Z,165308.38
2019-03-12T17:20:11.122Z,165291.00
2019-03-12T17:22:39.208Z,165283.02
2019-03-12T17:25:08.532Z,165296.34
2019-03-12T17:27:36.872Z,165301.69
2019-03-12T17:30:08.393Z,165308.38
2019-03-12T17:32:36.425Z,165299.03
2019-03-12T17:35:06.084Z,165304.38
2019-03-12T17:37:34.141Z,165281.67
2019-03-12T17:40:02.661Z,165261.72
2019-03-12T17:42:30.721Z,165249.69
2019-03-12T17:45:00.450Z,165235.00
2019-03-12T17:47:29.235Z,165205.67
2019-03-12T17:49:57.343Z,165172.34
2019-03-12T17:52:25.470Z,165192.34
2019-03-12T17:54:53.719Z,165196.34
2019-03-12T17:57:21.769Z,165196.34
2019-03-12T17:59:49.856Z,165207.02
2019-03-12T18:02:18.058Z,165191.00
2019-03-12T18:04:46.216Z,165252.37
2019-03-12T18:07:14.635Z,165271.05
2019-03-12T18:09:42.707Z,165239.00
2019-03-12T18:12:10.961Z,165215.00
2019-03-12T18:14:39.059Z,165215.00
2019-03-12T18:17:07.287Z,165207.02
2019-03-12T18:19:35.373Z,165191.00
2019-03-12T18:22:03.539Z,165192.34
2019-03-12T18:24:31.612Z,165205.67
2019-03-12T18:26:59.759Z,165196.34
2019-03-12T18:29:27.932Z,165194.98
2019-03-12T18:31:56.152Z,165169.70
2019-03-12T18:34:24.278Z,165185.66
2019-03-12T18:36:52.960Z,165183.02
2019-03-12T18:39:21.046Z,165187.00
2019-03-12T18:41:49.336Z,165183.02
2019-03-12T18:44:17.418Z,165183.02
2019-03-12T18:46:45.526Z,165200.33
2019-03-12T18:49:13.751Z,165212.36
2019-03-12T18:51:41.993Z,165197.69
2019-03-12T18:54:10.143Z,165209.66
2019-03-12T18:56:38.307Z,165218.98
2019-03-12T18:59:06.439Z,165224.33
2019-03-12T19:01:34.933Z,165236.36
2019-03-12T19:04:03.237Z,165231.02
2019-03-12T19:06:31.433Z,165221.69
2019-03-12T19:08:59.558Z,165249.69
2019-03-12T19:11:27.643Z,165253.67
2019-03-12T19:13:55.732Z,165268.34
2019-03-12T19:16:23.951Z,165263.00
2019-03-12T19:18:52.131Z,165280.38
2019-03-12T19:21:20.234Z,165263.00
2019-03-12T19:23:48.330Z,165269.69
2019-03-12T19:26:16.506Z,165264.34
2019-03-12T19:28:44.927Z,165272.34
2019-03-12T19:31:36.790Z,165253.67
2019-03-12T19:34:09.619Z,165263.00
2019-03-12T19:36:37.764Z,165267.00
2019-03-12T19:39:09.349Z,165289.70
2019-03-12T19:41:37.562Z,165264.34
2019-03-12T19:44:05.941Z,165281.67
2019-03-12T19:46:34.320Z,165264.34
2019-03-12T19:49:02.874Z,165265.70
2019-03-12T19:51:31.097Z,165279.03
2019-03-12T19:53:59.628Z,165271.05
2019-03-12T19:56:27.748Z,165288.36
2019-03-12T19:58:55.913Z,165281.67
2019-03-12T20:01:24.512Z,165281.67
2019-03-12T20:03:52.623Z,165313.72
2019-03-12T20:06:20.768Z,165300.39
2019-03-12T20:08:50.158Z,165311.02
2019-03-12T20:12:28.710Z,165283.02
2019-03-12T20:16:01.097Z,165319.05
2019-03-12T20:19:24.511Z,165316.36
2019-03-12T20:22:47.507Z,165303.03
2019-03-12T20:26:11.846Z,165288.36
2019-03-12T20:29:23.417Z,165317.70
2019-03-12T20:33:00.806Z,165329.69
2019-03-12T20:36:34.484Z,165367.13
2019-03-12T20:40:12.114Z,165353.75
2019-03-12T20:43:35.520Z,165376.45
2019-03-12T20:47:20.018Z,165368.42
2019-03-12T20:50:44.409Z,165359.09
2019-03-12T20:54:05.623Z,165325.69
2019-03-12T20:57:28.647Z,165324.39
2019-03-12T21:01:13.133Z,165307.02
2019-03-12T21:04:48.236Z,165293.69
2019-03-12T21:08:27.432Z,165292.34
2019-03-12T21:11:58.145Z,165284.38
2019-03-12T21:15:02.006Z,165288.36
2019-03-12T21:18:18.433Z,165292.34
2019-03-12T21:21:59.208Z,165292.34
2019-03-12T21:25:17.713Z,165276.37
2019-03-12T21:28:34.166Z,165265.70
2019-03-12T21:31:02.764Z,165263.00
2019-03-12T21:33:30.852Z,165267.00
2019-03-12T21:35:59.364Z,165249.69
2019-03-12T21:38:27.437Z,165239.00
2019-03-12T21:40:55.598Z,165231.02
2019-03-12T21:43:23.723Z,165203.03
2019-03-12T21:45:52.285Z,165201.67
2019-03-12T21:48:20.410Z,165191.00
2019-03-12T21:50:48.567Z,165180.33
2019-03-12T21:53:16.662Z,165176.33
2019-03-12T21:55:44.783Z,165161.66
2019-03-12T21:58:12.815Z,165147.00
2019-03-12T22:00:40.967Z,165109.67
2019-03-12T22:03:09.067Z,165093.72
2019-03-12T22:05:37.198Z,165075.02
2019-03-12T22:08:05.664Z,165063.03
2019-03-12T22:10:33.830Z,165057.70
2019-03-12T22:13:02.206Z,165049.72
2019-03-12T22:15:31.168Z,165049.72
2019-03-12T22:17:59.993Z,165056.36
2019-03-12T22:20:28.344Z,165069.72
2019-03-12T22:23:04.294Z,165075.02
2019-03-12T22:25:32.519Z,165087.03
2019-03-12T22:28:00.767Z,165109.67
2019-03-12T22:30:28.972Z,165124.34
2019-03-12T22:32:57.812Z,165127.05
2019-03-12T22:35:26.018Z,165140.36
2019-03-12T22:37:54.541Z,165160.37
2019-03-12T22:40:22.817Z,165161.66
2019-03-12T22:42:51.350Z,165175.03
2019-03-12T22:45:20.436Z,165183.02
2019-03-12T22:47:48.558Z,165183.02
2019-03-12T22:50:16.682Z,165193.69
2019-03-12T22:52:44.816Z,165159.02
2019-03-12T22:55:12.995Z,165145.69
2019-03-12T22:57:43.047Z,165132.33
2019-03-12T23:00:11.700Z,165113.67
2019-03-12T23:02:40.250Z,165063.03
2019-03-12T23:05:09.600Z,165023.03
2019-03-12T23:07:38.563Z,164924.45
2019-03-12T23:10:07.291Z,164833.88
2019-03-12T23:12:35.413Z,164717.98
2019-03-12T23:15:04.801Z,164635.37
2019-03-12T23:17:32.887Z,164572.80
2019-03-12T23:20:00.957Z,164527.52
2019-03-12T23:22:29.048Z,164500.92
2019-03-12T23:24:57.174Z,164463.67
2019-03-12T23:27:25.334Z,164449.03
2019-03-12T23:29:53.435Z,164451.67
2019-03-12T23:32:22.036Z,164431.70
2019-03-12T23:34:50.507Z,164450.33
2019-03-12T23:37:18.590Z,164421.09
2019-03-12T23:39:46.864Z,164418.41
2019-03-12T23:42:15.793Z,164409.09
2019-03-12T23:44:43.890Z,164406.45
2019-03-12T23:47:12.039Z,164389.12
2019-03-12T23:49:40.199Z,164389.12
2019-03-12T23:52:08.423Z,164386.50
2019-03-12T23:54:36.581Z,164391.81
2019-03-12T23:57:04.775Z,164370.52
2019-03-12T23:59:32.864Z,164389.12
